Time;durP1;ratioP1;P1;durP2;ratioP2;P2;SDS_P1;SDS_P2;PMS_P1;PMS_P2;Temp;Humidity;BMP_temperature;BMP_pressure;BME280_temperature;BME280_humidity;BME280_pressure;Samples;Min_cycle;Max_cycle;Signal;HPM_P1;HPM_P2
2021/11/03 00:01:05;;;;;;;48.77;26.70;;;;;;;;;;5043850;28;20562;-88
2021/11/03 00:03:34;;;;;;;53.55;29.20;;;;;;;;;;5044144;28;20467;-88
2021/11/03 00:06:03;;;;;;;47.83;25.47;;;;;;;;;;5057197;28;20232;-89
2021/11/03 00:08:32;;;;;;;51.07;26.77;;;;;;;;;;5050389;28;20468;-88
2021/11/03 00:11:01;;;;;;;48.30;26.57;;;;;;;;;;5050500;28;20466;-88
2021/11/03 00:13:31;;;;;;;51.83;27.87;;;;;;;;;;5053833;28;20484;-88
2021/11/03 00:15:59;;;;;;;51.27;28.83;;;;;;;;;;5044202;28;20472;-89
2021/11/03 00:18:28;;;;;;;52.20;26.30;;;;;;;;;;5049825;28;20470;-88
2021/11/03 00:20:57;;;;;;;47.83;26.53;;;;;;;;;;5039855;28;20494;-88
2021/11/03 00:23:25;;;;;;;54.97;27.60;;;;;;;;;;5059361;28;20467;-88
2021/11/03 00:25:54;;;;;;;51.17;27.37;;;;;;;;;;5058014;28;20471;-88
2021/11/03 00:28:22;;;;;;;48.47;25.97;;;;;;;;;;5058587;28;20486;-88
2021/11/03 00:30:54;;;;;;;49.30;26.43;;;;;;;;;;5048648;28;20480;-88
2021/11/03 00:33:22;;;;;;;47.67;26.73;;;;;;;;;;5031112;28;20535;-88
2021/11/03 00:35:51;;;;;;;54.33;30.35;;;;;;;;;;5047027;28;20845;-87
2021/11/03 00:38:19;;;;;;;49.83;26.20;;;;;;;;;;5049564;28;20228;-88
2021/11/03 00:40:48;;;;;;;49.73;27.43;;;;;;;;;;5054706;28;20494;-89
2021/11/03 00:43:17;;;;;;;51.23;28.23;;;;;;;;;;5049985;28;20544;-88
2021/11/03 00:45:46;;;;;;;55.15;30.33;;;;;;;;;;5049982;28;20479;-88
2021/11/03 00:48:16;;;;;;;49.03;27.33;;;;;;;;;;5049753;28;20236;-88
2021/11/03 00:50:45;;;;;;;50.87;27.63;;;;;;;;;;5053942;28;20493;-89
2021/11/03 00:53:14;;;;;;;51.90;28.47;;;;;;;;;;5059629;28;20482;-89
2021/11/03 00:55:42;;;;;;;47.97;26.57;;;;;;;;;;5059077;28;20544;-88
2021/11/03 00:58:11;;;;;;;49.90;27.57;;;;;;;;;;5057758;28;20475;-88
2021/11/03 01:00:39;;;;;;;50.03;26.27;;;;;;;;;;5055276;28;21004;-89
2021/11/03 01:03:09;;;;;;;51.77;29.30;;;;;;;;;;5054430;28;20479;-89
2021/11/03 01:05:39;;;;;;;51.63;27.23;;;;;;;;;;5050837;28;20563;-88
2021/11/03 01:08:08;;;;;;;50.47;28.07;;;;;;;;;;5058390;28;21103;-88
2021/11/03 01:10:38;;;;;;;50.43;29.37;;;;;;;;;;5050468;28;20474;-88
2021/11/03 01:13:06;;;;;;;47.00;26.57;;;;;;;;;;5030420;28;20481;-87
2021/11/03 01:15:35;;;;;;;47.87;26.53;;;;;;;;;;5027947;28;20476;-88
2021/11/03 01:18:04;;;;;;;51.83;27.60;;;;;;;;;;5006761;28;20475;-88
2021/11/03 01:20:32;;;;;;;54.27;29.73;;;;;;;;;;5032474;28;20476;-88
2021/11/03 01:23:02;;;;;;;48.30;26.17;;;;;;;;;;5025252;28;20490;-88
2021/11/03 01:25:31;;;;;;;53.93;28.47;;;;;;;;;;5024922;28;20472;-88
2021/11/03 01:27:59;;;;;;;53.80;27.63;;;;;;;;;;5020960;28;20583;-88
2021/11/03 01:30:27;;;;;;;47.60;27.07;;;;;;;;;;5023714;28;20465;-88
2021/11/03 01:32:57;;;;;;;50.73;27.60;;;;;;;;;;5007029;28;20548;-88
2021/11/03 01:35:26;;;;;;;48.43;26.47;;;;;;;;;;5030409;28;20487;-88
2021/11/03 01:37:56;;;;;;;51.27;28.20;;;;;;;;;;5037897;28;20977;-88
2021/11/03 01:40:27;;;;;;;50.00;26.73;;;;;;;;;;5018285;28;20546;-88
2021/11/03 01:42:56;;;;;;;52.20;28.83;;;;;;;;;;5020835;28;20469;-88
2021/11/03 01:45:25;;;;;;;47.27;26.70;;;;;;;;;;5030122;28;20307;-87
2021/11/03 01:47:55;;;;;;;49.60;27.23;;;;;;;;;;5033124;28;21489;-88
2021/11/03 01:50:29;;;;;;;50.07;27.03;;;;;;;;;;5039420;28;20491;-88
2021/11/03 01:52:59;;;;;;;47.93;26.73;;;;;;;;;;5029528;28;20472;-88
2021/11/03 01:55:30;;;;;;;56.08;30.05;;;;;;;;;;5019064;28;20505;-88
2021/11/03 01:58:02;;;;;;;48.97;26.37;;;;;;;;;;5012211;28;20634;-88
2021/11/03 02:00:32;;;;;;;48.00;26.00;;;;;;;;;;5020319;28;20839;-88
2021/11/03 02:03:02;;;;;;;53.90;29.27;;;;;;;;;;5042069;28;20468;-88
2021/11/03 02:05:31;;;;;;;52.58;30.13;;;;;;;;;;5027246;28;20760;-88
2021/11/03 02:08:00;;;;;;;55.05;30.63;;;;;;;;;;5033551;28;20232;-88
2021/11/03 02:10:30;;;;;;;50.87;28.70;;;;;;;;;;5038215;28;20312;-88
2021/11/03 02:12:59;;;;;;;45.60;25.67;;;;;;;;;;5035715;28;20918;-88
2021/11/03 02:15:27;;;;;;;48.27;26.67;;;;;;;;;;5030188;28;20547;-88
2021/11/03 02:17:57;;;;;;;46.97;26.17;;;;;;;;;;5023393;28;20465;-88
2021/11/03 02:20:26;;;;;;;47.97;27.87;;;;;;;;;;5033234;28;20472;-87
2021/11/03 02:23:05;;;;;;;47.27;26.13;;;;;;;;;;5038728;28;20469;-88
2021/11/03 02:25:36;;;;;;;50.75;28.63;;;;;;;;;;5025099;28;20491;-88
2021/11/03 02:28:10;;;;;;;60.05;31.38;;;;;;;;;;5033274;28;20233;-88
2021/11/03 02:30:39;;;;;;;49.63;26.47;;;;;;;;;;5036950;28;20229;-87
2021/11/03 02:33:08;;;;;;;43.40;23.93;;;;;;;;;;5032902;28;20484;-88
2021/11/03 02:35:37;;;;;;;54.47;29.65;;;;;;;;;;5033556;28;20880;-88
2021/11/03 02:38:07;;;;;;;42.53;24.20;;;;;;;;;;5039200;28;20252;-87
2021/11/03 02:40:41;;;;;;;51.43;28.07;;;;;;;;;;5039259;28;20473;-88
2021/11/03 02:43:13;;;;;;;53.47;30.10;;;;;;;;;;5054203;28;20825;-88
2021/11/03 02:45:43;;;;;;;46.13;26.80;;;;;;;;;;5051819;28;20221;-88
2021/11/03 02:48:12;;;;;;;43.77;25.50;;;;;;;;;;5037117;28;20467;-88
2021/11/03 02:50:52;;;;;;;51.17;28.57;;;;;;;;;;5054662;28;20554;-88
2021/11/03 02:53:21;;;;;;;54.20;28.40;;;;;;;;;;5059735;28;20886;-88
2021/11/03 02:55:50;;;;;;;50.70;27.33;;;;;;;;;;5052540;28;20490;-88
2021/11/03 02:58:19;;;;;;;58.60;31.20;;;;;;;;;;5055256;28;20678;-87
2021/11/03 03:00:48;;;;;;;49.37;27.13;;;;;;;;;;5056187;28;20307;-88
2021/11/03 03:03:17;;;;;;;49.97;27.03;;;;;;;;;;5042506;28;20491;-88
2021/11/03 03:05:55;;;;;;;47.33;27.20;;;;;;;;;;5045001;28;20462;-87
2021/11/03 03:08:24;;;;;;;48.03;26.53;;;;;;;;;;5044667;28;20645;-88
2021/11/03 03:10:54;;;;;;;54.20;29.13;;;;;;;;;;5022825;28;20464;-88
2021/11/03 03:13:22;;;;;;;46.27;26.37;;;;;;;;;;5006025;28;20465;-87
2021/11/03 03:15:50;;;;;;;48.67;26.90;;;;;;;;;;5008275;28;20479;-88
2021/11/03 03:18:19;;;;;;;49.37;26.67;;;;;;;;;;5006745;28;20527;-88
2021/11/03 03:20:47;;;;;;;48.53;27.07;;;;;;;;;;5014912;28;20535;-88
2021/11/03 03:23:35;;;;;;;50.20;28.13;;;;;;;;;;5035952;28;21025;-88
2021/11/03 03:26:06;;;;;;;66.07;35.50;;;;;;;;;;5038282;28;20579;-88
2021/11/03 03:28:35;;;;;;;50.17;27.77;;;;;;;;;;5027933;28;20236;-88
2021/11/03 03:31:03;;;;;;;51.30;27.93;;;;;;;;;;5023726;28;20475;-88
2021/11/03 03:33:32;;;;;;;49.17;28.07;;;;;;;;;;5037750;28;20493;-88
2021/11/03 03:36:00;;;;;;;58.93;31.43;;;;;;;;;;5028041;28;20476;-87
2021/11/03 03:38:31;;;;;;;49.80;28.23;;;;;;;;;;5035004;28;20486;-87
2021/11/03 03:40:59;;;;;;;58.70;32.10;;;;;;;;;;5026754;28;20507;-88
2021/11/03 03:43:29;;;;;;;42.53;24.77;;;;;;;;;;5034288;28;20563;-88
2021/11/03 03:45:57;;;;;;;56.20;28.87;;;;;;;;;;5031537;28;20812;-88
2021/11/03 03:48:31;;;;;;;47.40;26.17;;;;;;;;;;5034881;28;21016;-87
2021/11/03 03:50:59;;;;;;;45.50;26.73;;;;;;;;;;5040317;28;20478;-87
2021/11/03 03:53:32;;;;;;;47.43;26.60;;;;;;;;;;5033672;28;20499;-88
2021/11/03 03:56:11;;;;;;;48.93;28.10;;;;;;;;;;5038991;28;20479;-87
2021/11/03 03:58:41;;;;;;;48.87;26.53;;;;;;;;;;5034533;28;20547;-88
2021/11/03 04:01:09;;;;;;;49.87;27.50;;;;;;;;;;5016450;28;20568;-88
2021/11/03 04:03:39;;;;;;;45.47;25.43;;;;;;;;;;5029132;28;20490;-88
2021/11/03 04:06:07;;;;;;;50.08;26.98;;;;;;;;;;5031664;28;20480;-88
2021/11/03 04:08:36;;;;;;;46.33;26.43;;;;;;;;;;5020721;28;20275;-87
2021/11/03 04:11:04;;;;;;;46.57;25.80;;;;;;;;;;5026464;28;21296;-87
2021/11/03 04:13:33;;;;;;;53.33;30.23;;;;;;;;;;5036094;28;20472;-87
2021/11/03 04:16:03;;;;;;;47.47;26.47;;;;;;;;;;5042317;28;20481;-88
2021/11/03 04:18:32;;;;;;;55.57;32.93;;;;;;;;;;5028828;28;20468;-88
2021/11/03 04:21:00;;;;;;;50.30;28.87;;;;;;;;;;5020057;28;20479;-88
2021/11/03 04:23:31;;;;;;;43.33;26.57;;;;;;;;;;5025059;28;20465;-88
2021/11/03 04:25:59;;;;;;;53.17;30.97;;;;;;;;;;5036422;28;20928;-88
2021/11/03 04:28:28;;;;;;;53.43;30.50;;;;;;;;;;5038965;28;20474;-89
2021/11/03 04:30:56;;;;;;;46.83;26.57;;;;;;;;;;5027181;28;20478;-88
2021/11/03 04:33:26;;;;;;;46.27;27.17;;;;;;;;;;5030312;28;20602;-88
2021/11/03 04:35:54;;;;;;;54.25;30.77;;;;;;;;;;5034679;28;20472;-88
2021/11/03 04:38:23;;;;;;;46.30;27.23;;;;;;;;;;5043136;28;20510;-87
2021/11/03 04:40:51;;;;;;;44.47;25.93;;;;;;;;;;5033138;28;20953;-87
2021/11/03 04:43:19;;;;;;;42.90;25.70;;;;;;;;;;5025935;28;21177;-87
2021/11/03 04:45:51;;;;;;;49.30;29.70;;;;;;;;;;5035313;28;20508;-87
2021/11/03 04:48:20;;;;;;;45.10;27.13;;;;;;;;;;5031212;28;20475;-87
2021/11/03 04:50:52;;;;;;;46.97;27.60;;;;;;;;;;5032101;28;20471;-87
2021/11/03 04:53:24;;;;;;;51.97;33.10;;;;;;;;;;5040424;28;20486;-87
2021/11/03 04:55:57;;;;;;;59.50;38.97;;;;;;;;;;5027441;28;20536;-87
2021/11/03 04:58:28;;;;;;;58.40;38.03;;;;;;;;;;5031932;28;21050;-86
2021/11/03 05:01:00;;;;;;;52.27;33.50;;;;;;;;;;5022878;28;20532;-87
2021/11/03 05:03:29;;;;;;;56.30;37.17;;;;;;;;;;5033757;28;20522;-87
2021/11/03 05:06:01;;;;;;;51.57;32.07;;;;;;;;;;5035056;28;20549;-86
2021/11/03 05:08:32;;;;;;;46.10;27.73;;;;;;;;;;5042270;28;20720;-87
2021/11/03 05:11:05;;;;;;;45.90;26.80;;;;;;;;;;5042841;28;20222;-86
2021/11/03 05:13:35;;;;;;;41.73;24.53;;;;;;;;;;5022611;28;20501;-86
2021/11/03 05:16:03;;;;;;;51.28;28.35;;;;;;;;;;5023120;28;20475;-87
2021/11/03 05:18:36;;;;;;;42.20;24.77;;;;;;;;;;5023890;28;20251;-86
2021/11/03 05:21:08;;;;;;;42.47;24.67;;;;;;;;;;5023240;28;20477;-87
2021/11/03 05:23:37;;;;;;;46.53;27.07;;;;;;;;;;5028920;28;20838;-86
2021/11/03 05:26:05;;;;;;;43.57;25.70;;;;;;;;;;5025290;28;20468;-87
2021/11/03 05:28:36;;;;;;;46.43;25.10;;;;;;;;;;5025110;28;20472;-86
2021/11/03 05:31:05;;;;;;;38.70;22.83;;;;;;;;;;5025624;28;20481;-87
2021/11/03 05:33:37;;;;;;;45.73;25.90;;;;;;;;;;5018290;28;20472;-87
2021/11/03 05:36:12;;;;;;;47.38;27.55;;;;;;;;;;5039906;28;20533;-87
2021/11/03 05:38:40;;;;;;;51.45;27.67;;;;;;;;;;5040717;28;20297;-86
2021/11/03 05:41:08;;;;;;;39.63;22.40;;;;;;;;;;5040419;28;20229;-87
2021/11/03 05:43:37;;;;;;;40.50;22.83;;;;;;;;;;5030218;28;20539;-87
2021/11/03 05:46:05;;;;;;;41.87;23.60;;;;;;;;;;5024659;28;20520;-87
2021/11/03 05:48:36;;;;;;;49.22;27.73;;;;;;;;;;5033420;28;20476;-86
2021/11/03 05:51:05;;;;;;;41.07;23.63;;;;;;;;;;5037066;28;20234;-87
2021/11/03 05:53:38;;;;;;;51.05;28.90;;;;;;;;;;5025302;28;20522;-87
2021/11/03 05:56:09;;;;;;;51.50;28.88;;;;;;;;;;5036728;28;20245;-87
2021/11/03 05:58:40;;;;;;;42.60;24.80;;;;;;;;;;5021335;28;20320;-87
2021/11/03 06:01:08;;;;;;;34.53;19.83;;;;;;;;;;5002542;28;20312;-88
2021/11/03 06:03:38;;;;;;;38.30;21.30;;;;;;;;;;4998757;28;20480;-88
2021/11/03 06:06:06;;;;;;;36.57;20.47;;;;;;;;;;5016120;28;20464;-88
2021/11/03 06:08:36;;;;;;;34.23;19.63;;;;;;;;;;5019662;28;20469;-88
2021/11/03 06:11:06;;;;;;;35.40;20.80;;;;;;;;;;5019093;28;20487;-88
2021/11/03 06:13:35;;;;;;;45.80;26.65;;;;;;;;;;5017067;28;20526;-88
2021/11/03 06:16:04;;;;;;;34.17;20.07;;;;;;;;;;5012966;28;20239;-88
2021/11/03 06:18:32;;;;;;;44.42;25.58;;;;;;;;;;5033040;28;20966;-87
2021/11/03 06:21:05;;;;;;;49.53;27.77;;;;;;;;;;5021222;28;20234;-87
2021/11/03 06:23:33;;;;;;;43.50;24.63;;;;;;;;;;5026411;28;20221;-88
2021/11/03 06:26:03;;;;;;;48.85;27.25;;;;;;;;;;5024129;28;21017;-87
2021/11/03 06:28:32;;;;;;;36.77;21.17;;;;;;;;;;5020723;28;20247;-88
2021/11/03 06:31:01;;;;;;;42.63;24.20;;;;;;;;;;5026259;28;20480;-87
2021/11/03 06:33:31;;;;;;;51.40;29.23;;;;;;;;;;5011588;28;20819;-88
2021/11/03 06:36:01;;;;;;;47.83;26.85;;;;;;;;;;5023074;28;20239;-87
2021/11/03 06:38:30;;;;;;;47.77;23.80;;;;;;;;;;5019642;28;20232;-87
2021/11/03 06:40:58;;;;;;;45.30;25.77;;;;;;;;;;5006960;28;20472;-87
2021/11/03 06:43:29;;;;;;;42.80;24.63;;;;;;;;;;5015344;28;20468;-87
2021/11/03 06:45:57;;;;;;;49.47;27.73;;;;;;;;;;5031517;28;20463;-87
2021/11/03 06:48:25;;;;;;;52.40;29.52;;;;;;;;;;4998423;28;20243;-87
2021/11/03 06:50:54;;;;;;;49.42;27.92;;;;;;;;;;5003523;28;20230;-87
2021/11/03 06:53:25;;;;;;;52.63;28.63;;;;;;;;;;5016128;28;20235;-88
2021/11/03 06:55:54;;;;;;;50.97;28.25;;;;;;;;;;5036512;28;20239;-87
2021/11/03 06:58:22;;;;;;;42.93;23.93;;;;;;;;;;5015080;28;20239;-87
2021/11/03 07:00:53;;;;;;;49.17;24.90;;;;;;;;;;5013425;28;20468;-87
2021/11/03 07:03:27;;;;;;;44.50;25.10;;;;;;;;;;5024492;28;20468;-87
2021/11/03 07:05:56;;;;;;;43.17;24.83;;;;;;;;;;5021792;28;20978;-87
2021/11/03 07:08:25;;;;;;;44.47;25.07;;;;;;;;;;5019231;28;20487;-87
2021/11/03 07:10:55;;;;;;;48.97;28.40;;;;;;;;;;5012362;28;20477;-87
2021/11/03 07:13:24;;;;;;;45.50;25.60;;;;;;;;;;4996615;28;20222;-87
2021/11/03 07:15:54;;;;;;;39.23;21.77;;;;;;;;;;5001571;28;20486;-87
2021/11/03 07:18:23;;;;;;;39.03;21.93;;;;;;;;;;5001223;28;20544;-87
2021/11/03 07:20:51;;;;;;;46.43;25.60;;;;;;;;;;5005654;28;20470;-86
2021/11/03 07:23:21;;;;;;;45.43;25.47;;;;;;;;;;5026746;28;20497;-86
2021/11/03 07:25:53;;;;;;;45.30;24.70;;;;;;;;;;5029118;28;20472;-86
2021/11/03 07:28:21;;;;;;;46.87;25.40;;;;;;;;;;5026834;28;20463;-86
2021/11/03 07:30:49;;;;;;;43.70;24.53;;;;;;;;;;5027193;28;20486;-86
2021/11/03 07:33:20;;;;;;;46.50;26.00;;;;;;;;;;5020560;28;20468;-86
2021/11/03 07:35:48;;;;;;;44.67;24.93;;;;;;;;;;5020683;28;20478;-86
2021/11/03 07:38:16;;;;;;;46.10;24.93;;;;;;;;;;5026300;28;21061;-86
2021/11/03 07:40:46;;;;;;;53.63;25.17;;;;;;;;;;5012757;28;20498;-86
2021/11/03 07:43:16;;;;;;;46.93;25.87;;;;;;;;;;5016481;28;20492;-86
2021/11/03 07:45:45;;;;;;;44.90;24.73;;;;;;;;;;5013609;28;20475;-87
2021/11/03 07:48:13;;;;;;;46.17;25.33;;;;;;;;;;5005785;28;20852;-86
2021/11/03 07:50:49;;;;;;;49.63;24.77;;;;;;;;;;5009029;28;20481;-86
2021/11/03 07:53:17;;;;;;;52.33;29.20;;;;;;;;;;5007237;28;20537;-86
2021/11/03 07:55:47;;;;;;;52.40;27.13;;;;;;;;;;5021710;28;20236;-86
2021/11/03 07:58:16;;;;;;;48.53;25.83;;;;;;;;;;5043868;28;20758;-86
2021/11/03 08:00:48;;;;;;;48.23;26.60;;;;;;;;;;4994263;28;20906;-87
2021/11/03 08:03:17;;;;;;;44.33;24.40;;;;;;;;;;5020518;28;20538;-86
2021/11/03 08:05:49;;;;;;;52.58;27.98;;;;;;;;;;5021369;28;20468;-86
2021/11/03 08:08:19;;;;;;;46.53;25.43;;;;;;;;;;5024804;28;20282;-86
2021/11/03 08:10:48;;;;;;;45.83;24.37;;;;;;;;;;5013272;28;20472;-86
2021/11/03 08:13:17;;;;;;;46.90;25.93;;;;;;;;;;5012736;28;20468;-86
2021/11/03 08:15:47;;;;;;;44.27;24.37;;;;;;;;;;5020429;28;20475;-86
2021/11/03 08:18:16;;;;;;;45.57;25.13;;;;;;;;;;5029198;28;20618;-86
2021/11/03 08:20:45;;;;;;;44.57;24.13;;;;;;;;;;5018539;28;20509;-86
2021/11/03 08:23:15;;;;;;;50.85;27.67;;;;;;;;;;5020722;28;20513;-86
2021/11/03 08:25:44;;;;;;;45.33;24.60;;;;;;;;;;5027923;28;20230;-86
2021/11/03 08:28:13;;;;;;;45.17;24.60;;;;;;;;;;5007638;28;20468;-86
2021/11/03 08:30:42;;;;;;;49.23;26.00;;;;;;;;;;5014490;28;20477;-87
2021/11/03 08:33:12;;;;;;;47.27;25.70;;;;;;;;;;5011911;28;20476;-87
2021/11/03 08:35:42;;;;;;;44.67;24.57;;;;;;;;;;5029297;28;20479;-87
2021/11/03 08:38:12;;;;;;;46.43;25.13;;;;;;;;;;5026483;28;20457;-86
2021/11/03 08:40:43;;;;;;;44.87;24.30;;;;;;;;;;5033894;28;20551;-86
2021/11/03 08:43:16;;;;;;;47.40;26.37;;;;;;;;;;5033826;28;20558;-86
2021/11/03 08:45:44;;;;;;;47.17;25.27;;;;;;;;;;5030564;28;20474;-87
2021/11/03 08:48:13;;;;;;;48.37;25.37;;;;;;;;;;5033323;28;20484;-86
2021/11/03 08:50:42;;;;;;;45.73;25.07;;;;;;;;;;5041041;28;20827;-87
2021/11/03 08:53:11;;;;;;;46.23;25.50;;;;;;;;;;5031776;28;20990;-87
2021/11/03 08:55:39;;;;;;;47.93;26.97;;;;;;;;;;5036270;28;20480;-87
2021/11/03 08:58:12;;;;;;;46.53;24.93;;;;;;;;;;5042156;28;20461;-87
2021/11/03 09:00:40;;;;;;;51.93;27.43;;;;;;;;;;5016017;28;20477;-87
2021/11/03 09:03:09;;;;;;;46.77;25.07;;;;;;;;;;5018983;28;21292;-87
2021/11/03 09:05:38;;;;;;;48.43;27.33;;;;;;;;;;5005722;28;20472;-88
2021/11/03 09:08:06;;;;;;;48.77;25.37;;;;;;;;;;5006973;28;20481;-87
2021/11/03 09:10:39;;;;;;;46.80;25.40;;;;;;;;;;5008903;28;20488;-86
2021/11/03 09:13:07;;;;;;;48.67;26.87;;;;;;;;;;4994758;28;20485;-87
2021/11/03 09:15:37;;;;;;;48.93;26.53;;;;;;;;;;5020997;28;20487;-82
2021/11/03 09:18:06;;;;;;;48.03;26.10;;;;;;;;;;5032038;28;20476;-88
2021/11/03 09:20:34;;;;;;;48.23;25.47;;;;;;;;;;5010065;28;20483;-87
2021/11/03 09:23:02;;;;;;;51.03;27.90;;;;;;;;;;5006132;28;20474;-86
2021/11/03 09:25:30;;;;;;;50.30;26.70;;;;;;;;;;5010406;28;20560;-87
2021/11/03 09:27:59;;;;;;;50.37;27.47;;;;;;;;;;4994108;28;20482;-87
2021/11/03 09:30:28;;;;;;;49.93;27.27;;;;;;;;;;4999087;28;20474;-87
2021/11/03 09:33:04;;;;;;;52.70;30.03;;;;;;;;;;4995727;28;20476;-87
2021/11/03 09:35:34;;;;;;;50.67;28.53;;;;;;;;;;5002266;28;20478;-87
2021/11/03 09:38:05;;;;;;;59.57;32.13;;;;;;;;;;5008203;28;21022;-87
2021/11/03 09:40:34;;;;;;;54.17;29.70;;;;;;;;;;5006423;28;20465;-87
2021/11/03 09:43:04;;;;;;;50.17;27.13;;;;;;;;;;5009791;28;20482;-87
2021/11/03 09:45:35;;;;;;;50.27;27.37;;;;;;;;;;4996865;28;20470;-87
2021/11/03 09:48:16;;;;;;;48.37;26.03;;;;;;;;;;5000155;28;20480;-86
2021/11/03 09:50:47;;;;;;;45.77;24.70;;;;;;;;;;5015180;28;20465;-87
2021/11/03 09:53:21;;;;;;;46.80;25.77;;;;;;;;;;5009231;28;20477;-86
2021/11/03 09:55:50;;;;;;;48.17;24.80;;;;;;;;;;4999387;28;20481;-86
2021/11/03 09:58:28;;;;;;;50.97;26.93;;;;;;;;;;4990935;28;20467;-86
2021/11/03 10:00:58;;;;;;;46.17;24.90;;;;;;;;;;5003066;28;21181;-86
2021/11/03 10:03:36;;;;;;;51.17;26.80;;;;;;;;;;4989413;28;20470;-86
2021/11/03 10:06:08;;;;;;;49.10;27.30;;;;;;;;;;5008947;28;20479;-86
2021/11/03 10:08:38;;;;;;;47.73;25.60;;;;;;;;;;5010350;28;20546;-86
2021/11/03 10:11:17;;;;;;;47.50;25.57;;;;;;;;;;5008316;28;20476;-86
2021/11/03 10:13:46;;;;;;;50.57;26.13;;;;;;;;;;5009348;28;20552;-86
2021/11/03 10:16:24;;;;;;;47.53;25.63;;;;;;;;;;5000259;28;20506;-86
2021/11/03 10:18:59;;;;;;;49.93;25.57;;;;;;;;;;4995552;28;20475;-86
2021/11/03 10:21:35;;;;;;;50.87;27.23;;;;;;;;;;5011494;28;20467;-86
2021/11/03 10:24:05;;;;;;;47.97;26.27;;;;;;;;;;5027845;28;20483;-87
2021/11/03 10:26:46;;;;;;;48.07;26.77;;;;;;;;;;5022769;28;20547;-86
2021/11/03 10:29:17;;;;;;;47.53;25.53;;;;;;;;;;5007550;28;20480;-86
2021/11/03 10:31:47;;;;;;;48.10;26.00;;;;;;;;;;5005647;28;20463;-86
2021/11/03 10:34:22;;;;;;;47.20;26.10;;;;;;;;;;5001659;28;20487;-86
2021/11/03 10:36:59;;;;;;;48.43;26.73;;;;;;;;;;5005771;28;20461;-86
2021/11/03 10:39:31;;;;;;;50.13;27.70;;;;;;;;;;4997298;28;20519;-87
2021/11/03 10:42:00;;;;;;;51.53;27.13;;;;;;;;;;5023167;28;20488;-86
2021/11/03 10:44:30;;;;;;;62.33;31.87;;;;;;;;;;5007532;28;20487;-86
2021/11/03 10:46:59;;;;;;;50.60;27.23;;;;;;;;;;5022514;28;20465;-86
2021/11/03 10:49:45;;;;;;;49.37;27.03;;;;;;;;;;5022117;28;20587;-86
2021/11/03 10:52:18;;;;;;;48.43;26.13;;;;;;;;;;5027945;28;20478;-86
2021/11/03 10:54:49;;;;;;;48.10;26.30;;;;;;;;;;5029307;28;20548;-87
2021/11/03 10:57:23;;;;;;;47.40;26.17;;;;;;;;;;5020707;28;20465;-87
2021/11/03 10:59:57;;;;;;;49.97;27.43;;;;;;;;;;5035293;28;20494;-86
2021/11/03 11:02:26;;;;;;;52.50;27.47;;;;;;;;;;5015086;28;20474;-87
2021/11/03 11:04:56;;;;;;;52.00;27.27;;;;;;;;;;5037326;28;20518;-86
2021/11/03 11:07:30;;;;;;;50.67;28.27;;;;;;;;;;5027494;28;20488;-86
2021/11/03 11:10:02;;;;;;;51.03;27.13;;;;;;;;;;5024511;28;20465;-87
2021/11/03 11:12:32;;;;;;;48.77;26.73;;;;;;;;;;5015588;28;20478;-86
2021/11/03 11:15:04;;;;;;;55.03;29.17;;;;;;;;;;5027368;28;20484;-86
2021/11/03 11:17:36;;;;;;;50.23;27.23;;;;;;;;;;5014188;28;21004;-87
2021/11/03 11:20:09;;;;;;;53.10;28.83;;;;;;;;;;5015762;28;20476;-88
2021/11/03 11:23:03;;;;;;;50.07;27.57;;;;;;;;;;5028851;28;20472;-86
2021/11/03 11:25:35;;;;;;;52.43;27.73;;;;;;;;;;5026919;28;20686;-86
2021/11/03 11:28:12;;;;;;;49.73;26.87;;;;;;;;;;5026824;28;20477;-86
2021/11/03 11:30:43;;;;;;;55.33;30.63;;;;;;;;;;5012912;28;20479;-86
2021/11/03 11:33:14;;;;;;;50.40;28.47;;;;;;;;;;5015339;28;20893;-86
2021/11/03 11:35:47;;;;;;;52.10;27.80;;;;;;;;;;5022494;28;20475;-87
2021/11/03 11:38:20;;;;;;;51.30;28.27;;;;;;;;;;5025342;28;20480;-86
2021/11/03 11:40:52;;;;;;;52.63;28.20;;;;;;;;;;5021513;28;20479;-87
2021/11/03 11:43:24;;;;;;;53.50;29.47;;;;;;;;;;5011331;28;20842;-86
2021/11/03 11:45:52;;;;;;;52.37;29.40;;;;;;;;;;4996470;28;20562;-86
2021/11/03 11:48:28;;;;;;;52.23;28.93;;;;;;;;;;5004303;28;20464;-86
2021/11/03 11:50:59;;;;;;;52.60;28.90;;;;;;;;;;5014638;28;20473;-87
2021/11/03 11:53:30;;;;;;;51.67;28.10;;;;;;;;;;5008962;28;20488;-86
2021/11/03 11:56:20;;;;;;;54.10;28.30;;;;;;;;;;5008335;28;21152;-86
2021/11/03 11:58:50;;;;;;;56.33;30.27;;;;;;;;;;5021819;28;20467;-86
2021/11/03 12:01:20;;;;;;;58.63;30.83;;;;;;;;;;5027093;28;20483;-86
2021/11/03 12:03:53;;;;;;;59.23;32.00;;;;;;;;;;5023051;28;20513;-87
2021/11/03 12:06:40;;;;;;;61.93;33.53;;;;;;;;;;5024819;28;20581;-87
2021/11/03 12:09:22;;;;;;;65.07;35.83;;;;;;;;;;5028708;28;20473;-87
2021/11/03 12:12:02;;;;;;;57.23;30.80;;;;;;;;;;5021437;28;20501;-86
2021/11/03 12:14:35;;;;;;;52.00;29.80;;;;;;;;;;5030463;28;20468;-86
2021/11/03 12:17:24;;;;;;;68.50;38.27;;;;;;;;;;5004951;28;20475;-87
2021/11/03 12:19:54;;;;;;;56.93;29.43;;;;;;;;;;5004895;28;20986;-86
2021/11/03 12:22:37;;;;;;;53.37;29.70;;;;;;;;;;5021924;28;20480;-87
2021/11/03 12:25:21;;;;;;;59.10;34.37;;;;;;;;;;5016491;28;20470;-86
2021/11/03 12:27:55;;;;;;;55.33;31.30;;;;;;;;;;5010097;28;20474;-86
2021/11/03 12:30:38;;;;;;;55.30;31.40;;;;;;;;;;5027139;28;20473;-86
2021/11/03 12:33:07;;;;;;;75.90;41.43;;;;;;;;;;5031688;28;20484;-87
2021/11/03 12:35:50;;;;;;;58.50;33.33;;;;;;;;;;5031303;28;20852;-87
2021/11/03 12:38:36;;;;;;;57.33;30.73;;;;;;;;;;5034786;28;20470;-85
2021/11/03 12:41:16;;;;;;;61.90;34.67;;;;;;;;;;5024893;28;20462;-87
2021/11/03 12:43:50;;;;;;;52.90;28.80;;;;;;;;;;5037341;28;20568;-86
2021/11/03 12:46:20;;;;;;;54.73;30.93;;;;;;;;;;5029312;28;20548;-86
2021/11/03 12:48:50;;;;;;;59.40;30.57;;;;;;;;;;5023562;28;20470;-86
2021/11/03 12:51:19;;;;;;;54.33;29.90;;;;;;;;;;5028996;28;20478;-87
2021/11/03 12:53:49;;;;;;;53.83;29.47;;;;;;;;;;5021342;28;20474;-86
2021/11/03 12:56:21;;;;;;;55.27;29.53;;;;;;;;;;5016198;28;20476;-86
2021/11/03 12:58:53;;;;;;;56.30;30.10;;;;;;;;;;5007556;28;21183;-87
2021/11/03 13:01:23;;;;;;;54.40;28.97;;;;;;;;;;5012928;28;20474;-86
2021/11/03 13:03:53;;;;;;;54.67;29.07;;;;;;;;;;5016455;28;20466;-83
2021/11/03 13:06:27;;;;;;;56.40;31.00;;;;;;;;;;5010293;28;20476;-83
2021/11/03 13:08:56;;;;;;;60.10;33.57;;;;;;;;;;5020636;28;20475;-86
2021/11/03 13:11:27;;;;;;;59.17;30.67;;;;;;;;;;5031511;28;20483;-86
2021/11/03 13:14:00;;;;;;;51.37;28.33;;;;;;;;;;5014376;28;20606;-86
2021/11/03 13:16:31;;;;;;;54.30;30.20;;;;;;;;;;5010050;28;20474;-86
2021/11/03 13:19:00;;;;;;;56.90;30.60;;;;;;;;;;4997776;28;20493;-86
2021/11/03 13:21:31;;;;;;;53.70;28.67;;;;;;;;;;5024550;28;20507;-84
2021/11/03 13:24:07;;;;;;;58.30;30.97;;;;;;;;;;5013322;28;20470;-86
2021/11/03 13:26:38;;;;;;;55.73;30.67;;;;;;;;;;5009262;28;20882;-85
2021/11/03 13:29:09;;;;;;;57.97;30.67;;;;;;;;;;5017099;28;20471;-85
2021/11/03 13:31:39;;;;;;;59.20;33.57;;;;;;;;;;4998424;28;20487;-86
2021/11/03 13:34:11;;;;;;;56.70;29.73;;;;;;;;;;5028512;28;20494;-86
2021/11/03 13:36:40;;;;;;;57.73;32.53;;;;;;;;;;5024926;28;21022;-87
2021/11/03 13:39:25;;;;;;;54.53;29.83;;;;;;;;;;5029504;28;20489;-87
2021/11/03 13:41:54;;;;;;;55.50;31.83;;;;;;;;;;5025864;28;20497;-87
2021/11/03 13:44:35;;;;;;;56.10;31.40;;;;;;;;;;5020086;28;20481;-86
2021/11/03 13:47:06;;;;;;;59.90;32.73;;;;;;;;;;5021160;28;20465;-87
2021/11/03 13:49:35;;;;;;;57.23;31.23;;;;;;;;;;5011632;28;20527;-83
2021/11/03 13:52:24;;;;;;;56.33;31.03;;;;;;;;;;5017847;28;20472;-86
2021/11/03 13:54:54;;;;;;;65.00;35.63;;;;;;;;;;5016001;28;20465;-86
2021/11/03 13:57:26;;;;;;;58.30;34.43;;;;;;;;;;4996367;28;20485;-86
2021/11/03 13:59:57;;;;;;;61.80;35.37;;;;;;;;;;5007210;28;20480;-86
2021/11/03 14:02:33;;;;;;;58.03;33.37;;;;;;;;;;5004169;28;20539;-86
2021/11/03 14:05:03;;;;;;;57.60;33.47;;;;;;;;;;5013086;28;21026;-86
2021/11/03 14:07:42;;;;;;;55.63;31.17;;;;;;;;;;5034044;28;20477;-86
2021/11/03 14:10:10;;;;;;;58.17;31.80;;;;;;;;;;5021617;28;20471;-86
2021/11/03 14:12:39;;;;;;;56.87;30.17;;;;;;;;;;5019937;28;20976;-86
2021/11/03 14:15:09;;;;;;;56.73;31.77;;;;;;;;;;5033044;28;20479;-86
2021/11/03 14:17:39;;;;;;;63.30;35.57;;;;;;;;;;5048916;28;20467;-86
2021/11/03 14:20:22;;;;;;;57.67;32.27;;;;;;;;;;5059963;28;20503;-86
2021/11/03 14:22:50;;;;;;;56.50;32.97;;;;;;;;;;5046549;28;20836;-86
2021/11/03 14:25:21;;;;;;;61.13;32.67;;;;;;;;;;5047530;28;20866;-86
2021/11/03 14:27:50;;;;;;;58.10;32.00;;;;;;;;;;5033142;28;20487;-86
2021/11/03 14:30:25;;;;;;;87.83;48.37;;;;;;;;;;5006325;28;20471;-87
2021/11/03 14:32:54;;;;;;;61.90;32.33;;;;;;;;;;5038194;28;20474;-86
2021/11/03 14:35:23;;;;;;;56.13;31.43;;;;;;;;;;5018953;28;20487;-86
2021/11/03 14:37:52;;;;;;;55.43;31.27;;;;;;;;;;5040797;28;20474;-86